Time;durP1;ratioP1;P1;durP2;ratioP2;P2;SDS_P1;SDS_P2;PMS_P1;PMS_P2;Temp;Humidity;BMP_temperature;BMP_pressure;BME280_temperature;BME280_humidity;BME280_pressure;Samples;Min_cycle;Max_cycle;Signal;HPM_P1;HPM_P2
2023/01/26 00:00:04;;;;;;;;;;;18.50;41.60;;;;;;5053051;28;20365;-74
2023/01/26 00:02:30;;;;;;;;;;;18.50;41.60;;;;;;5071418;28;19913;-73
2023/01/26 00:04:55;;;;;;;;;;;18.50;41.60;;;;;;5071876;28;19921;-73
2023/01/26 00:07:20;;;;;;;;;;;18.50;41.30;;;;;;5073578;28;19931;-72
2023/01/26 00:09:46;;;;;;;;;;;18.50;41.30;;;;;;5073197;28;19918;-71
2023/01/26 00:12:11;;;;;;;;;;;18.50;41.30;;;;;;5054722;28;19913;-70
2023/01/26 00:14:49;;;;;;;;;;;18.50;41.30;;;;;;5071845;28;19912;-71
2023/01/26 00:17:24;;;;;;;;;;;18.50;41.30;;;;;;5073979;28;20296;-73
2023/01/26 00:19:53;;;;;;;;;;;18.50;41.50;;;;;;5077682;28;20342;-74
2023/01/26 00:22:19;;;;;;;;;;;18.40;41.30;;;;;;5067289;28;19959;-75
2023/01/26 00:24:45;;;;;;;;;;;18.40;41.20;;;;;;5071186;28;19948;-73
2023/01/26 00:27:10;;;;;;;;;;;18.40;41.20;;;;;;5061319;28;20403;-73
2023/01/26 00:29:35;;;;;;;;;;;18.40;41.20;;;;;;5073538;28;20829;-71
2023/01/26 00:32:01;;;;;;;;;;;18.40;41.40;;;;;;5071388;28;20295;-73
2023/01/26 00:34:26;;;;;;;;;;;18.40;41.30;;;;;;5071497;28;20711;-74
2023/01/26 00:36:52;;;;;;;;;;;18.30;41.20;;;;;;5073874;28;20394;-71
2023/01/26 00:39:17;;;;;;;;;;;18.30;41.20;;;;;;5072706;28;20280;-71
2023/01/26 00:44:27;;;;;;;;;;;18.30;41.20;;;;;;5056428;28;19931;-71
2023/01/26 00:46:52;;;;;;;;;;;18.20;41.10;;;;;;5073772;28;19912;-71
2023/01/26 00:49:18;;;;;;;;;;;18.30;41.10;;;;;;5069136;28;19923;-73
2023/01/26 00:51:43;;;;;;;;;;;18.30;41.20;;;;;;5059915;28;19919;-74
2023/01/26 00:54:08;;;;;;;;;;;18.30;41.20;;;;;;5072315;28;20383;-71
2023/01/26 00:56:34;;;;;;;;;;;18.20;41.10;;;;;;5072529;28;20383;-72
2023/01/26 00:58:59;;;;;;;;;;;18.30;41.20;;;;;;5071230;28;19912;-74
2023/01/26 01:01:25;;;;;;;;;;;18.20;41.20;;;;;;5072290;28;19912;-74
2023/01/26 01:03:51;;;;;;;;;;;18.20;41.30;;;;;;5072772;28;20007;-73
2023/01/26 01:06:16;;;;;;;;;;;18.20;41.20;;;;;;5073493;28;19920;-73
2023/01/26 01:08:42;;;;;;;;;;;18.20;41.20;;;;;;5071493;28;19920;-73
2023/01/26 01:11:08;;;;;;;;;;;18.20;41.20;;;;;;5071324;28;19913;-71
2023/01/26 01:13:33;;;;;;;;;;;18.20;41.10;;;;;;5069606;28;20372;-71
2023/01/26 01:15:59;;;;;;;;;;;18.20;41.10;;;;;;5068156;28;19959;-71
2023/01/26 01:18:24;;;;;;;;;;;18.20;41.10;;;;;;5070622;28;20015;-71
2023/01/26 01:20:49;;;;;;;;;;;18.20;41.00;;;;;;5060993;28;19935;-74
2023/01/26 01:23:15;;;;;;;;;;;18.20;41.00;;;;;;5061598;28;20027;-74
2023/01/26 01:25:40;;;;;;;;;;;18.20;41.00;;;;;;5072263;28;20283;-71
2023/01/26 01:28:06;;;;;;;;;;;18.20;41.10;;;;;;5066244;28;19934;-70
2023/01/26 01:30:31;;;;;;;;;;;18.20;41.00;;;;;;5072856;28;19912;-71
2023/01/26 01:32:57;;;;;;;;;;;18.20;41.10;;;;;;5070548;28;20004;-74
2023/01/26 01:35:22;;;;;;;;;;;18.20;41.20;;;;;;5072608;28;19923;-73
2023/01/26 01:37:47;;;;;;;;;;;18.20;41.20;;;;;;5070374;28;19917;-73
2023/01/26 01:40:13;;;;;;;;;;;18.10;41.10;;;;;;5071199;28;19916;-74
2023/01/26 01:42:44;;;;;;;;;;;18.20;41.20;;;;;;5058271;28;19928;-73
2023/01/26 01:45:33;;;;;;;;;;;18.20;41.30;;;;;;5061452;28;19916;-71
2023/01/26 01:47:59;;;;;;;;;;;18.20;41.10;;;;;;5056455;28;19916;-72
2023/01/26 01:50:24;;;;;;;;;;;18.10;41.00;;;;;;5070372;28;19912;-74
2023/01/26 01:52:50;;;;;;;;;;;18.20;41.00;;;;;;5068466;28;19938;-74
2023/01/26 01:55:15;;;;;;;;;;;18.20;40.90;;;;;;5071376;28;19913;-74
2023/01/26 01:57:45;;;;;;;;;;;18.10;40.90;;;;;;5070496;28;19963;-72
2023/01/26 02:00:18;;;;;;;;;;;18.10;40.90;;;;;;5067680;28;19992;-73
2023/01/26 02:02:43;;;;;;;;;;;18.10;40.90;;;;;;5066931;28;19921;-73
2023/01/26 02:05:12;;;;;;;;;;;18.10;40.90;;;;;;5054178;28;20302;-73
2023/01/26 02:07:37;;;;;;;;;;;18.10;41.00;;;;;;5069846;28;19927;-72
2023/01/26 02:10:18;;;;;;;;;;;18.10;41.10;;;;;;5072032;28;19921;-73
2023/01/26 02:12:44;;;;;;;;;;;18.00;41.10;;;;;;5069504;28;20406;-73
2023/01/26 02:15:09;;;;;;;;;;;18.00;41.10;;;;;;5064154;28;19913;-73
2023/01/26 02:17:35;;;;;;;;;;;18.00;41.00;;;;;;5063508;28;19912;-73
2023/01/26 02:20:03;;;;;;;;;;;18.10;41.10;;;;;;5071956;28;19952;-73
2023/01/26 02:22:49;;;;;;;;;;;18.00;41.10;;;;;;5068584;28;19913;-73
2023/01/26 02:25:26;;;;;;;;;;;18.00;41.20;;;;;;5070607;28;20371;-73
2023/01/26 02:27:52;;;;;;;;;;;18.00;41.10;;;;;;5067927;28;19917;-73
2023/01/26 02:30:17;;;;;;;;;;;18.00;41.20;;;;;;5065901;28;19938;-73
2023/01/26 02:32:43;;;;;;;;;;;18.00;41.20;;;;;;5069543;28;19917;-73
2023/01/26 02:35:08;;;;;;;;;;;18.00;41.10;;;;;;5071790;28;19917;-73
2023/01/26 02:37:33;;;;;;;;;;;18.00;41.10;;;;;;5069822;28;19913;-73
2023/01/26 02:40:00;;;;;;;;;;;18.00;41.10;;;;;;5070685;28;19920;-73
2023/01/26 02:42:39;;;;;;;;;;;17.90;41.10;;;;;;5071347;28;19987;-73
2023/01/26 02:45:05;;;;;;;;;;;17.90;41.20;;;;;;5070347;28;19923;-73
2023/01/26 02:47:31;;;;;;;;;;;17.90;41.30;;;;;;5068463;28;19916;-73
2023/01/26 02:49:57;;;;;;;;;;;17.90;41.40;;;;;;5069638;28;19921;-73
2023/01/26 02:52:24;;;;;;;;;;;17.90;41.30;;;;;;5071937;28;19916;-73
2023/01/26 02:57:34;;;;;;;;;;;17.90;41.50;;;;;;5073874;28;19920;-73
2023/01/26 02:59:59;;;;;;;;;;;17.90;41.30;;;;;;5074581;28;20287;-73
2023/01/26 03:02:25;;;;;;;;;;;17.90;41.50;;;;;;5074709;28;20375;-73
2023/01/26 03:04:50;;;;;;;;;;;17.90;41.30;;;;;;5072634;28;19927;-73
2023/01/26 03:07:16;;;;;;;;;;;17.90;41.30;;;;;;5073689;28;20380;-71
2023/01/26 03:09:41;;;;;;;;;;;17.90;41.30;;;;;;5074825;28;20278;-73
2023/01/26 03:12:07;;;;;;;;;;;17.90;41.30;;;;;;5067583;28;20018;-73
2023/01/26 03:14:32;;;;;;;;;;;17.90;41.30;;;;;;5072751;28;19921;-73
2023/01/26 03:16:58;;;;;;;;;;;17.90;41.30;;;;;;5075006;28;20279;-73
2023/01/26 03:27:43;;;;;;;;;;;17.90;41.30;;;;;;5074387;28;19924;-71
2023/01/26 03:30:09;;;;;;;;;;;17.90;41.30;;;;;;5062257;28;20003;-73
2023/01/26 03:32:34;;;;;;;;;;;17.90;41.30;;;;;;5072235;28;19974;-73
2023/01/26 03:35:00;;;;;;;;;;;17.90;41.20;;;;;;5072082;28;19998;-73
2023/01/26 03:37:25;;;;;;;;;;;17.90;41.30;;;;;;5074563;28;20380;-72
2023/01/26 03:56:31;;;;;;;;;;;17.90;41.40;;;;;;5072855;28;20444;-73
2023/01/26 03:59:09;;;;;;;;;;;17.80;41.30;;;;;;5072462;28;20292;-73
2023/01/26 04:01:39;;;;;;;;;;;17.90;41.50;;;;;;5070211;28;20387;-73
2023/01/26 04:09:33;;;;;;;;;;;17.80;41.40;;;;;;5073200;28;19970;-73
2023/01/26 04:11:58;;;;;;;;;;;17.80;41.40;;;;;;5075655;28;19939;-73
2023/01/26 04:22:43;;;;;;;;;;;17.80;41.50;;;;;;5074062;28;20030;-73
2023/01/26 04:25:10;;;;;;;;;;;17.80;41.50;;;;;;5055579;28;19935;-73
2023/01/26 04:27:35;;;;;;;;;;;17.80;41.40;;;;;;5073672;28;19916;-73
2023/01/26 04:30:02;;;;;;;;;;;17.80;41.40;;;;;;5071801;28;19916;-73
2023/01/26 04:32:28;;;;;;;;;;;17.80;41.40;;;;;;5073040;28;19938;-73
2023/01/26 04:34:53;;;;;;;;;;;17.80;41.40;;;;;;5071121;28;19925;-73
2023/01/26 04:37:19;;;;;;;;;;;17.80;41.40;;;;;;5068978;28;20011;-73
2023/01/26 04:39:44;;;;;;;;;;;17.80;41.40;;;;;;5070595;28;19919;-73
2023/01/26 04:42:09;;;;;;;;;;;17.80;41.50;;;;;;5071968;28;19919;-73
2023/01/26 04:44:35;;;;;;;;;;;17.80;41.40;;;;;;5071620;28;19917;-73
2023/01/26 04:47:00;;;;;;;;;;;17.70;41.40;;;;;;5073712;28;19928;-73
2023/01/26 04:49:26;;;;;;;;;;;17.70;41.40;;;;;;5069658;28;19920;-73
2023/01/26 04:51:51;;;;;;;;;;;17.70;41.40;;;;;;5066008;28;20011;-72
2023/01/26 04:54:17;;;;;;;;;;;17.70;41.50;;;;;;5059929;28;19923;-73
2023/01/26 04:56:42;;;;;;;;;;;17.70;41.40;;;;;;5064431;28;19923;-72
2023/01/26 04:59:08;;;;;;;;;;;17.70;41.50;;;;;;5072062;28;20074;-73
2023/01/26 05:01:33;;;;;;;;;;;17.70;41.50;;;;;;5069631;28;20079;-73
2023/01/26 05:03:59;;;;;;;;;;;17.70;41.40;;;;;;5068941;28;20300;-73
2023/01/26 05:06:24;;;;;;;;;;;17.70;41.50;;;;;;5053711;28;19956;-73
2023/01/26 05:08:50;;;;;;;;;;;17.70;41.50;;;;;;5072248;28;19916;-73
2023/01/26 05:11:15;;;;;;;;;;;17.70;41.50;;;;;;5071933;28;19979;-73
2023/01/26 05:13:41;;;;;;;;;;;17.70;41.60;;;;;;5066184;28;20383;-73
2023/01/26 05:16:06;;;;;;;;;;;17.70;41.60;;;;;;5072848;28;20371;-73
2023/01/26 05:18:32;;;;;;;;;;;17.70;41.60;;;;;;5071050;28;20369;-73
2023/01/26 05:20:57;;;;;;;;;;;17.70;41.60;;;;;;5069891;28;19913;-72
2023/01/26 05:23:23;;;;;;;;;;;17.70;41.60;;;;;;5071843;28;19916;-73
2023/01/26 05:25:48;;;;;;;;;;;17.70;41.60;;;;;;5073234;28;19991;-73
2023/01/26 05:28:14;;;;;;;;;;;17.70;41.50;;;;;;5070518;28;19955;-73
2023/01/26 05:30:39;;;;;;;;;;;17.70;41.60;;;;;;5071209;28;19912;-73
2023/01/26 05:33:05;;;;;;;;;;;17.70;41.70;;;;;;5073201;28;19955;-73
2023/01/26 05:35:31;;;;;;;;;;;17.60;41.70;;;;;;5066195;28;20349;-73
2023/01/26 05:37:56;;;;;;;;;;;17.60;41.70;;;;;;5069489;28;20073;-73
2023/01/26 05:40:22;;;;;;;;;;;17.60;41.70;;;;;;5070422;28;19912;-73
2023/01/26 05:42:47;;;;;;;;;;;17.60;41.70;;;;;;5071391;28;19916;-73
2023/01/26 05:45:13;;;;;;;;;;;17.60;41.60;;;;;;5072179;28;19920;-72
2023/01/26 05:47:38;;;;;;;;;;;17.70;41.70;;;;;;5070028;28;20117;-73
2023/01/26 05:50:04;;;;;;;;;;;17.60;41.60;;;;;;5072118;28;19912;-73
2023/01/26 05:52:29;;;;;;;;;;;17.60;41.50;;;;;;5068051;28;19958;-73
2023/01/26 05:54:55;;;;;;;;;;;17.60;41.60;;;;;;5068949;28;19916;-73
2023/01/26 05:57:20;;;;;;;;;;;17.60;41.60;;;;;;5071354;28;19915;-73
2023/01/26 05:59:45;;;;;;;;;;;17.60;41.60;;;;;;5070732;28;19952;-73
2023/01/26 06:02:11;;;;;;;;;;;17.60;41.60;;;;;;5067982;28;19912;-73
2023/01/26 06:04:37;;;;;;;;;;;17.60;41.50;;;;;;5069585;28;19917;-73
2023/01/26 06:07:02;;;;;;;;;;;17.60;41.50;;;;;;5070002;28;19920;-73
2023/01/26 06:09:27;;;;;;;;;;;17.60;41.60;;;;;;5071803;28;19916;-73
2023/01/26 06:11:53;;;;;;;;;;;17.60;41.60;;;;;;5068623;28;20010;-73
2023/01/26 06:14:18;;;;;;;;;;;17.60;41.70;;;;;;5065021;28;19912;-73
2023/01/26 06:16:44;;;;;;;;;;;17.60;41.70;;;;;;5060052;28;19912;-73
2023/01/26 06:19:09;;;;;;;;;;;17.60;41.60;;;;;;5071968;28;19921;-73
2023/01/26 06:21:35;;;;;;;;;;;17.60;41.70;;;;;;5068943;28;19912;-73
2023/01/26 06:24:00;;;;;;;;;;;17.60;41.60;;;;;;5069984;28;20050;-73
2023/01/26 06:26:26;;;;;;;;;;;17.60;41.70;;;;;;5066961;28;20268;-73
2023/01/26 06:28:52;;;;;;;;;;;17.60;41.70;;;;;;5069673;28;19920;-72
2023/01/26 06:31:17;;;;;;;;;;;17.50;41.60;;;;;;5070056;28;19913;-73
2023/01/26 06:33:43;;;;;;;;;;;17.60;41.70;;;;;;5069974;28;20269;-73
2023/01/26 06:36:09;;;;;;;;;;;17.60;41.70;;;;;;5060898;28;19913;-73
2023/01/26 06:38:35;;;;;;;;;;;17.60;41.60;;;;;;5068357;28;19916;-73
2023/01/26 06:41:01;;;;;;;;;;;17.60;41.60;;;;;;5065515;28;19920;-72
2023/01/26 06:43:28;;;;;;;;;;;17.60;41.70;;;;;;5072264;28;19917;-73
2023/01/26 06:45:54;;;;;;;;;;;17.60;41.70;;;;;;5065284;28;19970;-73
2023/01/26 06:48:20;;;;;;;;;;;17.60;41.60;;;;;;5071003;28;20346;-73
2023/01/26 06:50:45;;;;;;;;;;;17.60;41.70;;;;;;5070125;28;19912;-72
2023/01/26 06:53:24;;;;;;;;;;;17.60;41.60;;;;;;5068402;28;19916;-73
2023/01/26 06:55:50;;;;;;;;;;;17.60;41.60;;;;;;5067469;28;20280;-73
2023/01/26 06:58:16;;;;;;;;;;;17.60;41.80;;;;;;5066964;28;19919;-73
2023/01/26 07:00:41;;;;;;;;;;;17.50;41.60;;;;;;5067958;28;19916;-73
2023/01/26 07:03:08;;;;;;;;;;;17.50;41.60;;;;;;5069261;28;20003;-73
2023/01/26 07:05:33;;;;;;;;;;;17.50;41.70;;;;;;5068285;28;19920;-73
2023/01/26 07:08:01;;;;;;;;;;;17.50;41.80;;;;;;5070138;28;19974;-73
2023/01/26 07:10:26;;;;;;;;;;;17.50;41.90;;;;;;5071204;28;20892;-73
2023/01/26 07:12:52;;;;;;;;;;;17.50;42.00;;;;;;5070554;28;20003;-73
2023/01/26 07:15:17;;;;;;;;;;;17.50;41.90;;;;;;5067921;28;19921;-73
2023/01/26 07:17:42;;;;;;;;;;;17.50;42.00;;;;;;5068435;28;19923;-73
2023/01/26 07:20:08;;;;;;;;;;;17.50;42.10;;;;;;5066806;28;19917;-73
2023/01/26 07:22:34;;;;;;;;;;;17.50;42.10;;;;;;5067546;28;19924;-73
2023/01/26 07:24:59;;;;;;;;;;;17.50;42.30;;;;;;5067313;28;20068;-73
2023/01/26 07:27:24;;;;;;;;;;;17.60;42.20;;;;;;5064189;28;19981;-73
2023/01/26 07:29:50;;;;;;;;;;;18.40;41.30;;;;;;5069185;28;19920;-73
2023/01/26 07:32:16;;;;;;;;;;;19.40;39.40;;;;;;5062433;28;20351;-73
2023/01/26 07:34:41;;;;;;;;;;;20.30;38.00;;;;;;5067963;28;19917;-73
2023/01/26 07:37:06;;;;;;;;;;;21.00;37.00;;;;;;5070633;28;19924;-73
2023/01/26 07:39:32;;;;;;;;;;;21.50;36.10;;;;;;5069649;28;19912;-73
2023/01/26 07:41:57;;;;;;;;;;;21.80;35.40;;;;;;5065074;28;20003;-74
2023/01/26 07:44:23;;;;;;;;;;;22.10;35.20;;;;;;5056760;28;19924;-73
2023/01/26 07:46:48;;;;;;;;;;;22.20;35.00;;;;;;5070918;28;20404;-72
2023/01/26 07:49:14;;;;;;;;;;;22.30;35.50;;;;;;5060988;28;19968;-73
2023/01/26 07:51:39;;;;;;;;;;;22.50;34.70;;;;;;5056561;28;19916;-73
2023/01/26 07:54:05;;;;;;;;;;;22.60;35.30;;;;;;5051169;28;19913;-73
2023/01/26 07:56:30;;;;;;;;;;;22.70;34.70;;;;;;5066495;28;19996;-72
2023/01/26 07:58:56;;;;;;;;;;;22.70;34.50;;;;;;5071050;28;19920;-73
2023/01/26 08:01:22;;;;;;;;;;;22.80;34.30;;;;;;5066952;28;19920;-73
2023/01/26 08:03:50;;;;;;;;;;;22.90;34.40;;;;;;5068504;28;19928;-73
2023/01/26 08:06:17;;;;;;;;;;;22.90;34.40;;;;;;5071743;28;19924;-74
2023/01/26 08:08:43;;;;;;;;;;;22.90;34.30;;;;;;5066353;28;20303;-74
2023/01/26 08:11:08;;;;;;;;;;;23.00;34.30;;;;;;5069611;28;19932;-74
2023/01/26 08:13:34;;;;;;;;;;;23.00;34.20;;;;;;5067763;28;20299;-74
2023/01/26 08:16:00;;;;;;;;;;;23.10;34.20;;;;;;5070210;28;20426;-73
2023/01/26 08:18:26;;;;;;;;;;;23.10;34.30;;;;;;5070203;28;19913;-74
2023/01/26 08:20:51;;;;;;;;;;;23.20;34.30;;;;;;5069357;28;19928;-72
2023/01/26 08:23:17;;;;;;;;;;;23.20;34.30;;;;;;5072498;28;19957;-74
2023/01/26 08:25:42;;;;;;;;;;;23.20;34.20;;;;;;5064586;28;19924;-74
2023/01/26 08:28:08;;;;;;;;;;;23.20;34.20;;;;;;5072541;28;19913;-74
2023/01/26 08:30:35;;;;;;;;;;;23.20;34.20;;;;;;5062236;28;19943;-74
2023/01/26 08:33:00;;;;;;;;;;;23.20;34.90;;;;;;5067015;28;19913;-73
2023/01/26 08:35:26;;;;;;;;;;;23.30;34.10;;;;;;5072119;28;19924;-74
2023/01/26 08:37:51;;;;;;;;;;;23.30;34.10;;;;;;5070861;28;19913;-74
2023/01/26 08:40:17;;;;;;;;;;;23.40;34.20;;;;;;5071593;28;20287;-74
2023/01/26 08:42:42;;;;;;;;;;;23.40;34.20;;;;;;5071755;28;20279;-74
2023/01/26 08:45:08;;;;;;;;;;;23.40;34.30;;;;;;5071766;28;19924;-74
2023/01/26 08:47:34;;;;;;;;;;;23.40;34.20;;;;;;5065936;28;19921;-71
2023/01/26 08:49:59;;;;;;;;;;;23.40;34.20;;;;;;5067958;28;19963;-74
2023/01/26 08:52:24;;;;;;;;;;;23.40;34.20;;;;;;5069048;28;20316;-74
2023/01/26 08:54:50;;;;;;;;;;;23.50;34.10;;;;;;5067240;28;20581;-74
2023/01/26 08:57:15;;;;;;;;;;;23.50;34.10;;;;;;5069246;28;20376;-74
2023/01/26 08:59:41;;;;;;;;;;;23.50;34.00;;;;;;5068977;28;19916;-73
2023/01/26 09:02:07;;;;;;;;;;;23.60;34.10;;;;;;5065153;28;20015;-74
2023/01/26 09:04:33;;;;;;;;;;;23.60;34.10;;;;;;5069275;28;20339;-73
2023/01/26 09:06:58;;;;;;;;;;;23.60;34.10;;;;;;5066337;28;19928;-74
2023/01/26 09:09:24;;;;;;;;;;;23.70;34.10;;;;;;5054861;28;20396;-73
2023/01/26 09:11:49;;;;;;;;;;;23.70;34.00;;;;;;5068783;28;19913;-74
2023/01/26 09:14:15;;;;;;;;;;;23.70;34.00;;;;;;5064562;28;19912;-74
2023/01/26 09:16:40;;;;;;;;;;;23.70;34.10;;;;;;5057094;28;19991;-74
2023/01/26 09:19:06;;;;;;;;;;;23.70;34.00;;;;;;5061506;28;19923;-72
2023/01/26 09:21:31;;;;;;;;;;;23.70;34.00;;;;;;5070332;28;19959;-73
2023/01/26 09:23:56;;;;;;;;;;;23.70;34.00;;;;;;5061319;28;19928;-74
2023/01/26 09:26:22;;;;;;;;;;;23.70;34.10;;;;;;5073383;28;19916;-72
2023/01/26 09:28:51;;;;;;;;;;;23.70;34.10;;;;;;5071605;28;19966;-74
2023/01/26 09:31:16;;;;;;;;;;;23.70;34.00;;;;;;5055075;28;20296;-73
2023/01/26 09:33:42;;;;;;;;;;;23.70;34.10;;;;;;5071575;28;19920;-71
2023/01/26 09:36:08;;;;;;;;;;;23.80;33.70;;;;;;5071020;28;19920;-74
2023/01/26 09:38:33;;;;;;;;;;;23.80;33.70;;;;;;5072077;28;19920;-74
2023/01/26 09:41:14;;;;;;;;;;;23.90;33.80;;;;;;5071647;28;19912;-73
2023/01/26 09:44:06;;;;;;;;;;;24.00;33.70;;;;;;5069199;28;20278;-73
2023/01/26 09:46:50;;;;;;;;;;;24.00;33.60;;;;;;5054872;28;19916;-71
2023/01/26 09:49:20;;;;;;;;;;;24.10;33.60;;;;;;5070792;28;19921;-73
2023/01/26 09:52:05;;;;;;;;;;;24.10;33.60;;;;;;5069105;28;19936;-73
2023/01/26 09:54:36;;;;;;;;;;;24.10;33.50;;;;;;5066944;28;19962;-74
2023/01/26 09:57:07;;;;;;;;;;;24.00;33.60;;;;;;5072470;28;20279;-74
2023/01/26 09:59:47;;;;;;;;;;;24.10;34.20;;;;;;5066840;28;19952;-73
2023/01/26 10:02:31;;;;;;;;;;;24.10;33.70;;;;;;5069713;28;19913;-74
2023/01/26 10:04:57;;;;;;;;;;;24.10;33.80;;;;;;5068481;28;19924;-74
2023/01/26 10:07:22;;;;;;;;;;;24.10;33.70;;;;;;5068668;28;19920;-74
2023/01/26 10:09:48;;;;;;;;;;;24.10;33.70;;;;;;5067911;28;20421;-73
2023/01/26 10:12:24;;;;;;;;;;;24.10;33.70;;;;;;5071124;28;19920;-71
2023/01/26 10:14:52;;;;;;;;;;;24.10;33.80;;;;;;5055555;28;19919;-73
2023/01/26 10:17:38;;;;;;;;;;;24.10;33.70;;;;;;5060743;28;20055;-73
2023/01/26 10:20:06;;;;;;;;;;;24.10;33.60;;;;;;5064115;28;19931;-73
2023/01/26 10:22:31;;;;;;;;;;;24.20;33.80;;;;;;5070517;28;19916;-73
2023/01/26 10:24:57;;;;;;;;;;;24.20;33.70;;;;;;5071591;28;20364;-72
2023/01/26 10:27:25;;;;;;;;;;;24.20;33.70;;;;;;5070205;28;22246;-72
2023/01/26 10:29:50;;;;;;;;;;;24.20;34.30;;;;;;5048509;28;19987;-73
2023/01/26 10:32:16;;;;;;;;;;;24.20;33.70;;;;;;5072327;28;19987;-73
2023/01/26 10:34:42;;;;;;;;;;;24.30;33.60;;;;;;5049996;28;19916;-73
2023/01/26 10:37:27;;;;;;;;;;;24.30;33.60;;;;;;5070337;28;19982;-73
2023/01/26 10:39:59;;;;;;;;;;;24.30;33.50;;;;;;5065675;28;19970;-73
2023/01/26 10:42:26;;;;;;;;;;;24.40;33.40;;;;;;5070667;28;20338;-73
2023/01/26 10:44:51;;;;;;;;;;;24.40;33.50;;;;;;5070640;28;19920;-73
2023/01/26 10:47:17;;;;;;;;;;;24.30;34.00;;;;;;5050321;28;19912;-74
2023/01/26 10:49:43;;;;;;;;;;;24.30;33.40;;;;;;5066392;28;19919;-74
2023/01/26 10:52:16;;;;;;;;;;;24.30;33.50;;;;;;5052808;28;19920;-74
2023/01/26 10:54:43;;;;;;;;;;;24.30;33.50;;;;;;5067376;28;19920;-74
2023/01/26 10:57:11;;;;;;;;;;;24.40;33.70;;;;;;5068568;28;19913;-73
2023/01/26 10:59:39;;;;;;;;;;;24.40;33.70;;;;;;5069616;28;20034;-74
2023/01/26 11:02:11;;;;;;;;;;;24.40;33.60;;;;;;5070442;28;19916;-74
2023/01/26 11:04:39;;;;;;;;;;;24.40;33.60;;;;;;5069002;28;20387;-73
2023/01/26 11:07:40;;;;;;;;;;;24.40;33.50;;;;;;5070441;28;19927;-73
2023/01/26 11:10:24;;;;;;;;;;;24.40;33.50;;;;;;5039240;28;19919;-74
2023/01/26 11:12:50;;;;;;;;;;;24.40;33.50;;;;;;5068342;28;19913;-74
2023/01/26 11:15:16;;;;;;;;;;;24.50;33.60;;;;;;5066143;28;19923;-73
2023/01/26 11:17:55;;;;;;;;;;;24.50;33.50;;;;;;5068358;28;20291;-74
2023/01/26 11:20:39;;;;;;;;;;;24.50;33.50;;;;;;5069787;28;19916;-74
2023/01/26 11:23:27;;;;;;;;;;;24.50;33.50;;;;;;5072368;28;19913;-74
2023/01/26 11:26:01;;;;;;;;;;;24.50;33.50;;;;;;5068252;28;19948;-74
2023/01/26 11:28:33;;;;;;;;;;;24.50;33.50;;;;;;5073363;28;19917;-74
2023/01/26 11:30:58;;;;;;;;;;;24.50;33.40;;;;;;5072995;28;19975;-74
2023/01/26 11:33:27;;;;;;;;;;;24.50;33.60;;;;;;5075840;28;19963;-74
2023/01/26 11:35:58;;;;;;;;;;;24.50;33.40;;;;;;5072241;28;20379;-74
2023/01/26 11:38:29;;;;;;;;;;;24.50;33.40;;;;;;5075261;28;20027;-74
2023/01/26 11:41:01;;;;;;;;;;;24.60;33.50;;;;;;5065517;28;19909;-74
2023/01/26 11:43:41;;;;;;;;;;;24.50;33.40;;;;;;5068020;28;19944;-74
2023/01/26 11:46:06;;;;;;;;;;;24.50;33.40;;;;;;5073081;28;19920;-74
2023/01/26 11:48:50;;;;;;;;;;;24.60;33.40;;;;;;5074734;28;19912;-74
2023/01/26 11:51:28;;;;;;;;;;;24.60;33.30;;;;;;5071919;28;19947;-74
2023/01/26 11:53:53;;;;;;;;;;;24.60;33.50;;;;;;5069300;28;19920;-74
2023/01/26 11:56:19;;;;;;;;;;;24.60;33.20;;;;;;5068416;28;19909;-74
2023/01/26 11:58:50;;;;;;;;;;;24.60;33.20;;;;;;5074702;28;19913;-74
2023/01/26 12:01:27;;;;;;;;;;;24.60;33.30;;;;;;5056509;28;19935;-74
2023/01/26 12:03:53;;;;;;;;;;;24.60;33.30;;;;;;5069897;28;19938;-74
2023/01/26 12:06:19;;;;;;;;;;;24.60;33.40;;;;;;5074525;28;20265;-74
2023/01/26 12:09:01;;;;;;;;;;;24.60;33.40;;;;;;5069765;28;20375;-74
2023/01/26 12:11:40;;;;;;;;;;;24.60;33.40;;;;;;5059892;28;19962;-74
2023/01/26 12:14:17;;;;;;;;;;;24.60;33.50;;;;;;5072038;28;20029;-74
2023/01/26 12:16:45;;;;;;;;;;;24.70;33.50;;;;;;5070394;28;19912;-74
2023/01/26 12:19:25;;;;;;;;;;;24.70;33.50;;;;;;5070305;28;19988;-74
2023/01/26 12:21:50;;;;;;;;;;;24.70;33.40;;;;;;5056039;28;19913;-74
2023/01/26 12:24:19;;;;;;;;;;;24.70;33.60;;;;;;5065051;28;19920;-74
2023/01/26 12:26:46;;;;;;;;;;;24.70;33.40;;;;;;5070904;28;20058;-74
2023/01/26 12:29:20;;;;;;;;;;;24.70;33.50;;;;;;5048595;28;19916;-74
2023/01/26 12:31:52;;;;;;;;;;;24.80;33.40;;;;;;5058324;28;19981;-74
2023/01/26 12:34:17;;;;;;;;;;;24.80;33.50;;;;;;5063720;28;19952;-74
2023/01/26 12:37:06;;;;;;;;;;;24.80;33.50;;;;;;5042067;28;19952;-74
2023/01/26 12:39:34;;;;;;;;;;;24.80;33.50;;;;;;5064986;28;20170;-74
2023/01/26 12:42:19;;;;;;;;;;;24.80;33.50;;;;;;5063874;28;19925;-74
2023/01/26 12:44:54;;;;;;;;;;;24.80;33.40;;;;;;5066768;28;19927;-74
2023/01/26 12:47:28;;;;;;;;;;;24.90;33.40;;;;;;5066527;28;20368;-74
2023/01/26 12:49:53;;;;;;;;;;;24.80;33.50;;;;;;5070675;28;19939;-74
2023/01/26 12:52:23;;;;;;;;;;;24.80;33.50;;;;;;5068827;28;19916;-74
2023/01/26 12:55:09;;;;;;;;;;;24.80;33.40;;;;;;5067017;28;19912;-74
2023/01/26 12:57:37;;;;;;;;;;;24.80;33.40;;;;;;5060278;28;19924;-74
2023/01/26 13:00:04;;;;;;;;;;;24.80;33.50;;;;;;5068509;28;20277;-74
2023/01/26 13:02:34;;;;;;;;;;;24.90;33.40;;;;;;5063608;28;20366;-74
2023/01/26 13:05:00;;;;;;;;;;;24.90;33.50;;;;;;5060559;28;19927;-74
2023/01/26 13:07:25;;;;;;;;;;;24.90;33.30;;;;;;5063953;28;20066;-74
2023/01/26 13:10:09;;;;;;;;;;;24.90;33.50;;;;;;5069462;28;19975;-74
2023/01/26 13:12:50;;;;;;;;;;;24.90;33.50;;;;;;5067172;28;19916;-73
2023/01/26 13:15:17;;;;;;;;;;;24.90;33.70;;;;;;5067139;28;19917;-74
2023/01/26 13:17:51;;;;;;;;;;;24.90;33.80;;;;;;5072343;28;19913;-74
2023/01/26 13:20:27;;;;;;;;;;;24.90;33.80;;;;;;5068303;28;20375;-75
2023/01/26 13:22:53;;;;;;;;;;;24.90;33.90;;;;;;5069523;28;19916;-74
2023/01/26 13:25:27;;;;;;;;;;;24.90;33.90;;;;;;5070150;28;19917;-75
2023/01/26 13:27:58;;;;;;;;;;;24.90;33.90;;;;;;5073258;28;20403;-75
2023/01/26 13:30:29;;;;;;;;;;;24.90;33.90;;;;;;5072661;28;19960;-74
2023/01/26 13:32:58;;;;;;;;;;;24.90;33.80;;;;;;5073538;28;19992;-74
2023/01/26 13:35:24;;;;;;;;;;;25.00;33.90;;;;;;5061783;28;20584;-74
2023/01/26 13:37:59;;;;;;;;;;;25.00;33.80;;;;;;5058955;28;19917;-74
2023/01/26 13:40:29;;;;;;;;;;;25.00;33.90;;;;;;5067386;28;19998;-75
2023/01/26 13:43:13;;;;;;;;;;;25.00;33.90;;;;;;5050391;28;19920;-74
2023/01/26 13:45:57;;;;;;;;;;;25.10;33.80;;;;;;5065656;28;20343;-75
2023/01/26 13:48:32;;;;;;;;;;;25.10;34.50;;;;;;5066144;28;19913;-74
2023/01/26 13:50:58;;;;;;;;;;;25.00;33.80;;;;;;5064919;28;19924;-75
2023/01/26 13:53:31;;;;;;;;;;;25.10;34.50;;;;;;5060268;28;19912;-75
2023/01/26 13:55:57;;;;;;;;;;;25.10;33.80;;;;;;5067588;28;19939;-73
2023/01/26 13:58:23;;;;;;;;;;;25.10;33.80;;;;;;5068508;28;19913;-75
2023/01/26 14:01:01;;;;;;;;;;;25.10;33.80;;;;;;5071243;28;19996;-75
2023/01/26 14:03:27;;;;;;;;;;;25.10;33.80;;;;;;5068060;28;19931;-74
2023/01/26 14:05:53;;;;;;;;;;;25.10;33.80;;;;;;5067771;28;20364;-74
2023/01/26 14:08:21;;;;;;;;;;;25.10;33.80;;;;;;5071976;28;20281;-75
2023/01/26 14:10:46;;;;;;;;;;;25.10;33.90;;;;;;5071723;28;19963;-74
2023/01/26 14:13:18;;;;;;;;;;;25.10;33.90;;;;;;5062774;28;19940;-74
2023/01/26 14:15:44;;;;;;;;;;;25.10;33.90;;;;;;5069844;28;19912;-75
2023/01/26 14:18:13;;;;;;;;;;;25.10;34.00;;;;;;5067482;28;19909;-75
2023/01/26 14:20:39;;;;;;;;;;;25.10;34.00;;;;;;5067834;28;19918;-75
2023/01/26 14:23:12;;;;;;;;;;;25.10;33.90;;;;;;5071866;28;20287;-74
2023/01/26 14:25:38;;;;;;;;;;;25.10;33.80;;;;;;5073276;28;19917;-75
2023/01/26 14:28:03;;;;;;;;;;;25.20;33.80;;;;;;5077000;28;20434;-74
2023/01/26 14:30:29;;;;;;;;;;;25.20;33.90;;;;;;5069824;28;20295;-74
2023/01/26 14:32:57;;;;;;;;;;;25.20;34.00;;;;;;5065402;28;19912;-74
2023/01/26 14:35:22;;;;;;;;;;;25.10;34.00;;;;;;5063194;28;19912;-74
2023/01/26 14:37:49;;;;;;;;;;;25.10;34.00;;;;;;5063187;28;20007;-75
2023/01/26 14:40:14;;;;;;;;;;;25.10;34.00;;;;;;5067251;28;19913;-75
2023/01/26 14:42:40;;;;;;;;;;;25.10;34.00;;;;;;5070130;28;19920;-73
2023/01/26 14:45:10;;;;;;;;;;;25.10;34.00;;;;;;5055765;28;19969;-74
2023/01/26 14:47:35;;;;;;;;;;;25.20;34.10;;;;;;5068325;28;20265;-74
2023/01/26 14:50:05;;;;;;;;;;;25.10;34.10;;;;;;5067852;28;19916;-75
2023/01/26 14:52:37;;;;;;;;;;;25.20;34.10;;;;;;5066138;28;19952;-75
2023/01/26 14:55:06;;;;;;;;;;;25.20;34.10;;;;;;5061675;28;19961;-75
2023/01/26 14:57:32;;;;;;;;;;;25.20;34.00;;;;;;5044028;28;19998;-74
2023/01/26 14:59:58;;;;;;;;;;;25.30;34.10;;;;;;5066852;28;19958;-74
2023/01/26 15:02:24;;;;;;;;;;;25.20;33.90;;;;;;5052830;28;19909;-74
2023/01/26 15:05:00;;;;;;;;;;;25.30;34.00;;;;;;5062087;28;19916;-74